Dubuque, Iowa
Current Conditions -  °F | °C
As of 2:53 AM on Thursday 18 Dec 2014 (Local Time) from KDBQ Reporting Station
Clear Clear  
Wind Chill:   Ceiling: Unl
Heat Index: 15°   Visibility: 9mi
Dew Point: 12°   Wind: 5mph
Humidity: 88%   Direction: 20°NNE
Pressure: 30.27"   Gusts: NA
Location:  42.5°N, 90.66°W
Report Text: KDBQ 180853Z AUTO 02004KT 9SM CLR M09/M11 A3027 RMK AO2 SLP270 T10941111 55005
Loading
Personal Weather Stations






























Interactive Weather Map New forecast layout! Learn more

10-Day Weather Forecast

Advertisements
Track Severe Weather on mobile